sensor_id;sensor_type;location;lat;lon;timestamp;pressure;altitude;pressure_sealevel;temperature;humidity
41654;BME280;68687;52.030;7.110;2024-01-30T00:00:04;101903.78;;;7.37;100.00
41654;BME280;68687;52.030;7.110;2024-01-30T00:02:31;101901.59;;;7.42;100.00
41654;BME280;68687;52.030;7.110;2024-01-30T00:04:56;101901.31;;;7.45;100.00
41654;BME280;68687;52.030;7.110;2024-01-30T00:07:22;101882.41;;;7.37;100.00
41654;BME280;68687;52.030;7.110;2024-01-30T00:09:47;101906.97;;;7.52;100.00
41654;BME280;68687;52.030;7.110;2024-01-30T00:12:13;101895.72;;;7.48;100.00
41654;BME280;68687;52.030;7.110;2024-01-30T00:14:41;101894.88;;;7.48;100.00
41654;BME280;68687;52.030;7.110;2024-01-30T00:17:06;101889.94;;;7.43;100.00
41654;BME280;68687;52.030;7.110;2024-01-30T00:19:32;101893.19;;;7.47;100.00
41654;BME280;68687;52.030;7.110;2024-01-30T00:21:57;101894.88;;;7.48;100.00
41654;BME280;68687;52.030;7.110;2024-01-30T00:24:22;101885.03;;;7.48;100.00
41654;BME280;68687;52.030;7.110;2024-01-30T00:26:47;101901.38;;;7.55;100.00
41654;BME280;68687;52.030;7.110;2024-01-30T00:29:13;101882.53;;;7.56;100.00
41654;BME280;68687;52.030;7.110;2024-01-30T00:31:44;101884.66;;;7.62;100.00
41654;BME280;68687;52.030;7.110;2024-01-30T00:34:09;101894.84;;;7.68;100.00
41654;BME280;68687;52.030;7.110;2024-01-30T00:36:35;101892.16;;;7.68;100.00
41654;BME280;68687;52.030;7.110;2024-01-30T00:39:00;101891.06;;;7.71;100.00
41654;BME280;68687;52.030;7.110;2024-01-30T00:41:25;101882.56;;;7.66;100.00
41654;BME280;68687;52.030;7.110;2024-01-30T00:43:51;101891.06;;;7.71;100.00
41654;BME280;68687;52.030;7.110;2024-01-30T00:46:17;101884.72;;;7.72;100.00
41654;BME280;68687;52.030;7.110;2024-01-30T00:48:42;101880.66;;;7.78;100.00
41654;BME280;68687;52.030;7.110;2024-01-30T00:51:08;101893.47;;;7.84;100.00
41654;BME280;68687;52.030;7.110;2024-01-30T00:53:33;101878.56;;;7.81;100.00
41654;BME280;68687;52.030;7.110;2024-01-30T00:55:58;101883.78;;;7.83;100.00
41654;BME280;68687;52.030;7.110;2024-01-30T00:58:23;101898.66;;;7.75;100.00
41654;BME280;68687;52.030;7.110;2024-01-30T01:00:49;101889.38;;;7.80;100.00
41654;BME280;68687;52.030;7.110;2024-01-30T01:03:15;101889.38;;;7.80;100.00
41654;BME280;68687;52.030;7.110;2024-01-30T01:05:40;101883.78;;;7.83;100.00
41654;BME280;68687;52.030;7.110;2024-01-30T01:08:06;101879.53;;;7.80;100.00
41654;BME280;68687;52.030;7.110;2024-01-30T01:10:31;101886.03;;;7.87;100.00
41654;BME280;68687;52.030;7.110;2024-01-30T01:12:56;101893.91;;;7.89;100.00
41654;BME280;68687;52.030;7.110;2024-01-30T01:15:22;101874.47;;;7.77;100.00
41654;BME280;68687;52.030;7.110;2024-01-30T01:17:47;101879.09;;;7.75;100.00
41654;BME280;68687;52.030;7.110;2024-01-30T01:20:12;101877.69;;;7.71;100.00
41654;BME280;68687;52.030;7.110;2024-01-30T01:22:38;101876.97;;;7.69;100.00
41654;BME280;68687;52.030;7.110;2024-01-30T01:25:04;101885.56;;;7.72;100.00
41654;BME280;68687;52.030;7.110;2024-01-30T01:27:32;101878.06;;;7.66;100.00
41654;BME280;68687;52.030;7.110;2024-01-30T01:29:58;101880.38;;;7.71;100.00
41654;BME280;68687;52.030;7.110;2024-01-30T01:32:23;101888.66;;;7.68;100.00
41654;BME280;68687;52.030;7.110;2024-01-30T01:34:48;101879.72;;;7.58;100.00
41654;BME280;68687;52.030;7.110;2024-01-30T01:37:13;101873.53;;;7.57;100.00
41654;BME280;68687;52.030;7.110;2024-01-30T01:39:39;101872.69;;;7.57;100.00
41654;BME280;68687;52.030;7.110;2024-01-30T01:42:04;101870.84;;;7.57;100.00
41654;BME280;68687;52.030;7.110;2024-01-30T01:44:29;101869.88;;;7.58;100.00
41654;BME280;68687;52.030;7.110;2024-01-30T01:46:56;101854.94;;;7.46;100.00
41654;BME280;68687;52.030;7.110;2024-01-30T01:49:24;101859.28;;;7.47;100.00
41654;BME280;68687;52.030;7.110;2024-01-30T01:51:51;101860.53;;;7.43;100.00
41654;BME280;68687;52.030;7.110;2024-01-30T01:54:18;101859.28;;;7.47;100.00
41654;BME280;68687;52.030;7.110;2024-01-30T01:56:44;101860.91;;;7.38;100.00
41654;BME280;68687;52.030;7.110;2024-01-30T01:59:09;101853.16;;;7.35;100.00
41654;BME280;68687;52.030;7.110;2024-01-30T02:01:36;101857.22;;;7.30;100.00
41654;BME280;68687;52.030;7.110;2024-01-30T02:04:02;101862.28;;;7.33;100.00
41654;BME280;68687;52.030;7.110;2024-01-30T02:06:28;101859.63;;;7.33;100.00
41654;BME280;68687;52.030;7.110;2024-01-30T02:08:54;101841.56;;;7.16;100.00
41654;BME280;68687;52.030;7.110;2024-01-30T02:11:22;101859.00;;;7.20;100.00
41654;BME280;68687;52.030;7.110;2024-01-30T02:13:48;101845.34;;;7.13;100.00
41654;BME280;68687;52.030;7.110;2024-01-30T02:16:14;101854.63;;;7.19;100.00
41654;BME280;68687;52.030;7.110;2024-01-30T02:18:39;101851.25;;;7.17;100.00
41654;BME280;68687;52.030;7.110;2024-01-30T02:21:07;101847.16;;;7.12;100.00
41654;BME280;68687;52.030;7.110;2024-01-30T02:23:33;101845.25;;;7.03;100.00
41654;BME280;68687;52.030;7.110;2024-01-30T02:25:58;101843.31;;;7.05;100.00
41654;BME280;68687;52.030;7.110;2024-01-30T02:28:24;101846.19;;;7.13;100.00
41654;BME280;68687;52.030;7.110;2024-01-30T02:30:49;101844.00;;;7.07;100.00
41654;BME280;68687;52.030;7.110;2024-01-30T02:33:14;101839.66;;;7.06;100.00
41654;BME280;68687;52.030;7.110;2024-01-30T02:35:40;101822.22;;;7.02;100.00
41654;BME280;68687;52.030;7.110;2024-01-30T02:38:05;101832.75;;;7.04;100.00
41654;BME280;68687;52.030;7.110;2024-01-30T02:40:31;101826.03;;;7.09;100.00
41654;BME280;68687;52.030;7.110;2024-01-30T02:42:58;101817.84;;;7.01;100.00
41654;BME280;68687;52.030;7.110;2024-01-30T02:45:24;101829.69;;;7.08;100.00
41654;BME280;68687;52.030;7.110;2024-01-30T02:47:49;101827.81;;;6.99;100.00
41654;BME280;68687;52.030;7.110;2024-01-30T02:50:14;101831.63;;;7.06;100.00
41654;BME280;68687;52.030;7.110;2024-01-30T02:52:41;101815.00;;;6.93;100.00
41654;BME280;68687;52.030;7.110;2024-01-30T02:55:09;101831.19;;;7.01;100.00
41654;BME280;68687;52.030;7.110;2024-01-30T02:57:34;101819.66;;;7.01;100.00
41654;BME280;68687;52.030;7.110;2024-01-30T02:59:59;101828.22;;;6.95;100.00
41654;BME280;68687;52.030;7.110;2024-01-30T03:02:25;101815.53;;;6.87;100.00
41654;BME280;68687;52.030;7.110;2024-01-30T03:04:50;101813.56;;;6.89;100.00
41654;BME280;68687;52.030;7.110;2024-01-30T03:07:15;101817.22;;;6.88;100.00
41654;BME280;68687;52.030;7.110;2024-01-30T03:09:42;101815.25;;;6.90;100.00
41654;BME280;68687;52.030;7.110;2024-01-30T03:12:10;101804.13;;;6.85;100.00
41654;BME280;68687;52.030;7.110;2024-01-30T03:14:35;101804.59;;;6.90;100.00
41654;BME280;68687;52.030;7.110;2024-01-30T03:17:00;101801.78;;;6.92;100.00
41654;BME280;68687;52.030;7.110;2024-01-30T03:19:26;101796.44;;;6.92;100.00
41654;BME280;68687;52.030;7.110;2024-01-30T03:21:51;101804.84;;;6.87;100.00
41654;BME280;68687;52.030;7.110;2024-01-30T03:24:16;101797.22;;;6.82;100.00
41654;BME280;68687;52.030;7.110;2024-01-30T03:26:42;101797.41;;;6.91;100.00
41654;BME280;68687;52.030;7.110;2024-01-30T03:29:07;101782.88;;;6.83;100.00
41654;BME280;68687;52.030;7.110;2024-01-30T03:31:33;101791.38;;;6.89;100.00
41654;BME280;68687;52.030;7.110;2024-01-30T03:33:58;101792.22;;;6.89;100.00
41654;BME280;68687;52.030;7.110;2024-01-30T03:36:23;101785.81;;;6.80;100.00
41654;BME280;68687;52.030;7.110;2024-01-30T03:38:48;101785.09;;;6.78;100.00
41654;BME280;68687;52.030;7.110;2024-01-30T03:41:14;101785.06;;;6.69;100.00
41654;BME280;68687;52.030;7.110;2024-01-30T03:43:40;101772.94;;;6.65;100.00
41654;BME280;68687;52.030;7.110;2024-01-30T03:46:05;101779.97;;;6.66;100.00
41654;BME280;68687;52.030;7.110;2024-01-30T03:48:31;101784.03;;;6.60;100.00
41654;BME280;68687;52.030;7.110;2024-01-30T03:50:56;101782.06;;;6.62;100.00
41654;BME280;68687;52.030;7.110;2024-01-30T03:53:22;101786.03;;;6.68;100.00
41654;BME280;68687;52.030;7.110;2024-01-30T03:55:47;101772.09;;;6.64;100.00
41654;BME280;68687;52.030;7.110;2024-01-30T03:58:12;101775.41;;;6.57;100.00
41654;BME280;68687;52.030;7.110;2024-01-30T04:00:38;101784.38;;;6.56;100.00
41654;BME280;68687;52.030;7.110;2024-01-30T04:03:03;101756.22;;;6.42;100.00
41654;BME280;68687;52.030;7.110;2024-01-30T04:05:29;101766.03;;;6.41;100.00
41654;BME280;68687;52.030;7.110;2024-01-30T04:07:54;101756.81;;;6.45;100.00
41654;BME280;68687;52.030;7.110;2024-01-30T04:10:19;101762.72;;;6.49;100.00
41654;BME280;68687;52.030;7.110;2024-01-30T04:12:44;101764.63;;;6.58;100.00
41654;BME280;68687;52.030;7.110;2024-01-30T04:15:10;101752.63;;;6.53;100.00
41654;BME280;68687;52.030;7.110;2024-01-30T04:17:35;101761.47;;;6.53;100.00
41654;BME280;68687;52.030;7.110;2024-01-30T04:20:00;101761.56;;;6.63;100.00
41654;BME280;68687;52.030;7.110;2024-01-30T04:22:26;101748.72;;;6.57;100.00
41654;BME280;68687;52.030;7.110;2024-01-30T04:24:51;101747.88;;;6.56;100.00
41654;BME280;68687;52.030;7.110;2024-01-30T04:27:16;101756.38;;;6.61;100.00
41654;BME280;68687;52.030;7.110;2024-01-30T04:29:42;101755.44;;;6.51;100.00
41654;BME280;68687;52.030;7.110;2024-01-30T04:32:07;101746.28;;;6.65;100.00
41654;BME280;68687;52.030;7.110;2024-01-30T04:34:32;101736.44;;;6.65;100.00
41654;BME280;68687;52.030;7.110;2024-01-30T04:36:58;101746.59;;;6.71;100.00
41654;BME280;68687;52.030;7.110;2024-01-30T04:39:23;101744.44;;;6.65;100.00
41654;BME280;68687;52.030;7.110;2024-01-30T04:41:49;101757.84;;;6.75;100.00
41654;BME280;68687;52.030;7.110;2024-01-30T04:44:14;101755.16;;;6.75;100.00
41654;BME280;68687;52.030;7.110;2024-01-30T04:46:39;101749.69;;;6.76;100.00
41654;BME280;68687;52.030;7.110;2024-01-30T04:49:05;101745.84;;;6.90;100.00
41654;BME280;68687;52.030;7.110;2024-01-30T04:51:32;101751.25;;;7.00;100.00
41654;BME280;68687;52.030;7.110;2024-01-30T04:53:58;101743.38;;;6.98;100.00
41654;BME280;68687;52.030;7.110;2024-01-30T04:56:23;101739.72;;;6.99;100.00
41654;BME280;68687;52.030;7.110;2024-01-30T04:58:49;101726.19;;;6.91;100.00
41654;BME280;68687;52.030;7.110;2024-01-30T05:01:17;101741.50;;;6.89;100.00
41654;BME280;68687;52.030;7.110;2024-01-30T05:03:42;101737.28;;;6.87;100.00
41654;BME280;68687;52.030;7.110;2024-01-30T05:06:08;101725.94;;;6.94;100.00
41654;BME280;68687;52.030;7.110;2024-01-30T05:08:33;101729.88;;;7.00;100.00
41654;BME280;68687;52.030;7.110;2024-01-30T05:11:02;101734.38;;;6.99;100.00
41654;BME280;68687;52.030;7.110;2024-01-30T05:13:30;101731.56;;;7.01;100.00
41654;BME280;68687;52.030;7.110;2024-01-30T05:16:01;101724.13;;;7.04;100.00
41654;BME280;68687;52.030;7.110;2024-01-30T05:18:28;101732.72;;;7.08;100.00
41654;BME280;68687;52.030;7.110;2024-01-30T05:20:53;101733.69;;;7.07;100.00
41654;BME280;68687;52.030;7.110;2024-01-30T05:23:18;101735.84;;;7.13;100.00
41654;BME280;68687;52.030;7.110;2024-01-30T05:25:44;101736.16;;;7.20;100.00
41654;BME280;68687;52.030;7.110;2024-01-30T05:28:09;101737.53;;;7.14;100.00
41654;BME280;68687;52.030;7.110;2024-01-30T05:30:34;101746.03;;;7.29;100.00
41654;BME280;68687;52.030;7.110;2024-01-30T05:33:00;101733.66;;;7.28;100.00
41654;BME280;68687;52.030;7.110;2024-01-30T05:35:25;101737.72;;;7.32;100.00
41654;BME280;68687;52.030;7.110;2024-01-30T05:37:51;101746.47;;;7.34;100.00
41654;BME280;68687;52.030;7.110;2024-01-30T05:40:18;101744.50;;;7.36;100.00
41654;BME280;68687;52.030;7.110;2024-01-30T05:42:44;101729.41;;;7.16;100.00
41654;BME280;68687;52.030;7.110;2024-01-30T05:45:09;101740.09;;;7.16;100.00
41654;BME280;68687;52.030;7.110;2024-01-30T05:47:34;101737.28;;;7.17;100.00
41654;BME280;68687;52.030;7.110;2024-01-30T05:50:00;101737.84;;;7.21;100.00
41654;BME280;68687;52.030;7.110;2024-01-30T05:52:25;101739.38;;;7.13;100.00
41654;BME280;68687;52.030;7.110;2024-01-30T05:54:50;101741.19;;;7.13;100.00
41654;BME280;68687;52.030;7.110;2024-01-30T05:57:16;101743.66;;;7.05;100.00
41654;BME280;68687;52.030;7.110;2024-01-30T05:59:43;101753.50;;;7.04;100.00
41654;BME280;68687;52.030;7.110;2024-01-30T06:02:10;101734.28;;;7.10;100.00
41654;BME280;68687;52.030;7.110;2024-01-30T06:04:35;101748.59;;;7.09;100.00
41654;BME280;68687;52.030;7.110;2024-01-30T06:07:01;101736.50;;;7.05;100.00
41654;BME280;68687;52.030;7.110;2024-01-30T06:09:27;101743.38;;;6.98;100.00
41654;BME280;68687;52.030;7.110;2024-01-30T06:11:52;101740.56;;;7.00;100.00
41654;BME280;68687;52.030;7.110;2024-01-30T06:14:18;101738.72;;;7.00;100.00
41654;BME280;68687;52.030;7.110;2024-01-30T06:16:43;101736.78;;;7.02;100.00
41654;BME280;68687;52.030;7.110;2024-01-30T06:19:08;101736.34;;;6.97;100.00
41654;BME280;68687;52.030;7.110;2024-01-30T06:21:33;101740.44;;;7.01;100.00
41654;BME280;68687;52.030;7.110;2024-01-30T06:24:02;101738.03;;;6.98;100.00
41654;BME280;68687;52.030;7.110;2024-01-30T06:26:27;101744.38;;;7.07;100.00
41654;BME280;68687;52.030;7.110;2024-01-30T06:28:52;101746.78;;;7.10;100.00
41654;BME280;68687;52.030;7.110;2024-01-30T06:31:18;101736.22;;;7.08;100.00
41654;BME280;68687;52.030;7.110;2024-01-30T06:33:43;101731.59;;;7.10;100.00
41654;BME280;68687;52.030;7.110;2024-01-30T06:36:11;101727.72;;;7.15;100.00
41654;BME280;68687;52.030;7.110;2024-01-30T06:38:36;101734.78;;;7.25;100.00
41654;BME280;68687;52.030;7.110;2024-01-30T06:41:02;101739.56;;;7.31;100.00
41654;BME280;68687;52.030;7.110;2024-01-30T06:43:27;101739.44;;;7.33;100.00
41654;BME280;68687;52.030;7.110;2024-01-30T06:45:52;101742.53;;;7.38;100.00
41654;BME280;68687;52.030;7.110;2024-01-30T06:48:17;101738.78;;;7.40;100.00
41654;BME280;68687;52.030;7.110;2024-01-30T06:50:43;101728.47;;;7.36;100.00
41654;BME280;68687;52.030;7.110;2024-01-30T06:53:08;101745.81;;;7.41;100.00
41654;BME280;68687;52.030;7.110;2024-01-30T06:55:33;101738.50;;;7.43;100.00
41654;BME280;68687;52.030;7.110;2024-01-30T06:57:59;101740.91;;;7.47;100.00
41654;BME280;68687;52.030;7.110;2024-01-30T07:00:24;101748.50;;;7.51;100.00
41654;BME280;68687;52.030;7.110;2024-01-30T07:02:49;101721.28;;;7.36;100.00
41654;BME280;68687;52.030;7.110;2024-01-30T07:05:15;101724.56;;;7.40;100.00
41654;BME280;68687;52.030;7.110;2024-01-30T07:07:40;101735.13;;;7.41;100.00
41654;BME280;68687;52.030;7.110;2024-01-30T07:10:06;101730.34;;;7.45;100.00
41654;BME280;68687;52.030;7.110;2024-01-30T07:12:31;101743.16;;;7.51;100.00
41654;BME280;68687;52.030;7.110;2024-01-30T07:14:57;101745.00;;;7.60;100.00
41654;BME280;68687;52.030;7.110;2024-01-30T07:17:24;101737.97;;;7.59;100.00
41654;BME280;68687;52.030;7.110;2024-01-30T07:19:50;101743.22;;;7.70;100.00
41654;BME280;68687;52.030;7.110;2024-01-30T07:22:15;101732.66;;;7.69;100.00
41654;BME280;68687;52.030;7.110;2024-01-30T07:24:43;101725.34;;;7.81;100.00
41654;BME280;68687;52.030;7.110;2024-01-30T07:27:14;101741.09;;;7.93;100.00
41654;BME280;68687;52.030;7.110;2024-01-30T07:29:41;101738.75;;;8.00;100.00
41654;BME280;68687;52.030;7.110;2024-01-30T07:32:06;101740.72;;;7.98;100.00
41654;BME280;68687;52.030;7.110;2024-01-30T07:34:31;101743.09;;;8.01;100.00
41654;BME280;68687;52.030;7.110;2024-01-30T07:36:57;101756.31;;;8.12;100.00
41654;BME280;68687;52.030;7.110;2024-01-30T07:39:22;101753.38;;;8.15;100.00
41654;BME280;68687;52.030;7.110;2024-01-30T07:41:47;101747.59;;;8.10;100.00
41654;BME280;68687;52.030;7.110;2024-01-30T07:44:12;101757.31;;;8.21;100.00
41654;BME280;68687;52.030;7.110;2024-01-30T07:46:38;101764.38;;;8.31;100.00
41654;BME280;68687;52.030;7.110;2024-01-30T07:49:03;101749.03;;;8.24;100.00
41654;BME280;68687;52.030;7.110;2024-01-30T07:51:28;101733.13;;;8.22;100.00
41654;BME280;68687;52.030;7.110;2024-01-30T07:53:56;101739.16;;;8.24;100.00
41654;BME280;68687;52.030;7.110;2024-01-30T07:56:22;101741.84;;;8.24;100.00
41654;BME280;68687;52.030;7.110;2024-01-30T07:58:47;101761.16;;;8.38;100.00
41654;BME280;68687;52.030;7.110;2024-01-30T08:01:15;101764.53;;;8.40;100.00
41654;BME280;68687;52.030;7.110;2024-01-30T08:03:40;101761.56;;;8.43;100.00
41654;BME280;68687;52.030;7.110;2024-01-30T08:06:07;101766.22;;;8.50;100.00
41654;BME280;68687;52.030;7.110;2024-01-30T08:08:32;101776.66;;;8.53;100.00
41654;BME280;68687;52.030;7.110;2024-01-30T08:10:57;101782.97;;;8.62;100.00
41654;BME280;68687;52.030;7.110;2024-01-30T08:13:23;101770.00;;;8.57;100.00
41654;BME280;68687;52.030;7.110;2024-01-30T08:15:48;101772.53;;;8.59;100.00
41654;BME280;68687;52.030;7.110;2024-01-30T08:18:17;101780.69;;;8.67;100.00
41654;BME280;68687;52.030;7.110;2024-01-30T08:20:44;101793.38;;;8.65;100.00
41654;BME280;68687;52.030;7.110;2024-01-30T08:23:10;101769.59;;;8.62;100.00
41654;BME280;68687;52.030;7.110;2024-01-30T08:25:35;101779.97;;;8.75;100.00
41654;BME280;68687;52.030;7.110;2024-01-30T08:28:01;101788.16;;;8.73;100.00
41654;BME280;68687;52.030;7.110;2024-01-30T08:30:27;101766.31;;;8.78;100.00
41654;BME280;68687;52.030;7.110;2024-01-30T08:32:52;101781.41;;;8.79;100.00
41654;BME280;68687;52.030;7.110;2024-01-30T08:35:17;101796.75;;;8.86;100.00
41654;BME280;68687;52.030;7.110;2024-01-30T08:37:43;101771.94;;;8.84;100.00
41654;BME280;68687;52.030;7.110;2024-01-30T08:40:08;101781.75;;;9.03;100.00
41654;BME280;68687;52.030;7.110;2024-01-30T08:42:37;101776.13;;;8.96;100.00
41654;BME280;68687;52.030;7.110;2024-01-30T08:45:03;101772.75;;;8.94;100.00
41654;BME280;68687;52.030;7.110;2024-01-30T08:47:30;101791.50;;;9.04;100.00
41654;BME280;68687;52.030;7.110;2024-01-30T08:49:55;101793.44;;;9.12;100.00
41654;BME280;68687;52.030;7.110;2024-01-30T08:52:20;101789.47;;;9.16;100.00
41654;BME280;68687;52.030;7.110;2024-01-30T08:54:45;101790.88;;;9.20;100.00
41654;BME280;68687;52.030;7.110;2024-01-30T08:57:11;101782.13;;;9.18;100.00
41654;BME280;68687;52.030;7.110;2024-01-30T08:59:36;101783.78;;;9.28;100.00
41654;BME280;68687;52.030;7.110;2024-01-30T09:02:01;101797.03;;;9.30;100.00
41654;BME280;68687;52.030;7.110;2024-01-30T09:04:27;101787.16;;;9.30;100.00
41654;BME280;68687;52.030;7.110;2024-01-30T09:06:53;101787.44;;;9.37;100.00
41654;BME280;68687;52.030;7.110;2024-01-30T09:09:18;101798.84;;;9.39;100.00
41654;BME280;68687;52.030;7.110;2024-01-30T09:11:44;101797.56;;;9.43;100.00
41654;BME280;68687;52.030;7.110;2024-01-30T09:14:09;101787.81;;;9.42;100.00
41654;BME280;68687;52.030;7.110;2024-01-30T09:16:34;101794.88;;;9.43;100.00
41654;BME280;68687;52.030;7.110;2024-01-30T09:19:00;101817.25;;;9.52;100.00
41654;BME280;68687;52.030;7.110;2024-01-30T09:21:25;101804.25;;;9.57;100.00
41654;BME280;68687;52.030;7.110;2024-01-30T09:23:54;101824.59;;;9.59;100.00
41654;BME280;68687;52.030;7.110;2024-01-30T09:26:19;101792.44;;;9.50;100.00
41654;BME280;68687;52.030;7.110;2024-01-30T09:28:45;101811.56;;;9.65;100.00
41654;BME280;68687;52.030;7.110;2024-01-30T09:31:11;101787.91;;;9.50;100.00
41654;BME280;68687;52.030;7.110;2024-01-30T09:33:36;101794.94;;;9.61;100.00
41654;BME280;68687;52.030;7.110;2024-01-30T09:36:02;101796.19;;;9.67;100.00
41654;BME280;68687;52.030;7.110;2024-01-30T09:38:27;101788.13;;;9.67;100.00
41654;BME280;68687;52.030;7.110;2024-01-30T09:40:56;101793.59;;;9.75;100.00
41654;BME280;68687;52.030;7.110;2024-01-30T09:43:30;101797.50;;;9.80;100.00
41654;BME280;68687;52.030;7.110;2024-01-30T09:45:59;101805.94;;;9.85;100.00
41654;BME280;68687;52.030;7.110;2024-01-30T09:48:26;101799.00;;;9.93;100.00
41654;BME280;68687;52.030;7.110;2024-01-30T09:50:52;101798.69;;;9.96;100.00
41654;BME280;68687;52.030;7.110;2024-01-30T09:53:19;101800.22;;;9.98;100.00
41654;BME280;68687;52.030;7.110;2024-01-30T09:55:45;101807.97;;;10.01;100.00
41654;BME280;68687;52.030;7.110;2024-01-30T09:58:24;101800.91;;;10.00;100.00
41654;BME280;68687;52.030;7.110;2024-01-30T10:00:56;101795.78;;;10.07;100.00
41654;BME280;68687;52.030;7.110;2024-01-30T10:03:21;101779.16;;;10.03;100.00
41654;BME280;68687;52.030;7.110;2024-01-30T10:05:54;101790.22;;;10.18;100.00
41654;BME280;68687;52.030;7.110;2024-01-30T10:08:20;101793.59;;;10.38;100.00
41654;BME280;68687;52.030;7.110;2024-01-30T10:10:49;101786.06;;;10.59;100.00
41654;BME280;68687;52.030;7.110;2024-01-30T10:13:15;101787.09;;;10.84;98.62
41654;BME280;68687;52.030;7.110;2024-01-30T10:15:41;101811.94;;;11.04;98.27
41654;BME280;68687;52.030;7.110;2024-01-30T10:18:06;101807.31;;;11.22;97.44
41654;BME280;68687;52.030;7.110;2024-01-30T10:20:34;101806.59;;;11.12;97.65
41654;BME280;68687;52.030;7.110;2024-01-30T10:22:59;101798.22;;;11.15;97.20
41654;BME280;68687;52.030;7.110;2024-01-30T10:25:25;101786.31;;;11.18;97.32
41654;BME280;68687;52.030;7.110;2024-01-30T10:27:54;101811.41;;;11.60;96.35
41654;BME280;68687;52.030;7.110;2024-01-30T10:30:23;101822.31;;;11.59;94.87
41654;BME280;68687;52.030;7.110;2024-01-30T10:32:49;101806.00;;;11.86;93.92
41654;BME280;68687;52.030;7.110;2024-01-30T10:35:15;101798.28;;;11.99;93.15
41654;BME280;68687;52.030;7.110;2024-01-30T10:37:43;101819.28;;;11.96;93.76
41654;BME280;68687;52.030;7.110;2024-01-30T10:40:09;101808.88;;;11.93;92.36
41654;BME280;68687;52.030;7.110;2024-01-30T10:42:40;101793.78;;;11.74;94.81
41654;BME280;68687;52.030;7.110;2024-01-30T10:45:13;101810.69;;;11.84;93.63
41654;BME280;68687;52.030;7.110;2024-01-30T10:47:54;101807.91;;;11.68;94.13
41654;BME280;68687;52.030;7.110;2024-01-30T10:50:24;101798.56;;;11.80;94.53
41654;BME280;68687;52.030;7.110;2024-01-30T10:52:50;101808.66;;;11.78;94.46
41654;BME280;68687;52.030;7.110;2024-01-30T10:55:16;101798.63;;;11.54;95.84
41654;BME280;68687;52.030;7.110;2024-01-30T10:57:41;101806.91;;;11.69;95.39
41654;BME280;68687;52.030;7.110;2024-01-30T11:00:16;101801.66;;;11.25;97.44
41654;BME280;68687;52.030;7.110;2024-01-30T11:02:43;101793.84;;;11.48;97.45
41654;BME280;68687;52.030;7.110;2024-01-30T11:05:10;101809.69;;;11.51;96.59
41654;BME280;68687;52.030;7.110;2024-01-30T11:07:35;101798.72;;;11.44;97.63
41654;BME280;68687;52.030;7.110;2024-01-30T11:10:03;101800.38;;;11.37;97.49
41654;BME280;68687;52.030;7.110;2024-01-30T11:12:30;101788.25;;;11.33;97.60
41654;BME280;68687;52.030;7.110;2024-01-30T11:15:14;101810.75;;;11.32;98.15
41654;BME280;68687;52.030;7.110;2024-01-30T11:17:51;101801.19;;;11.30;97.72
41654;BME280;68687;52.030;7.110;2024-01-30T11:20:25;101802.53;;;11.34;98.16
41654;BME280;68687;52.030;7.110;2024-01-30T11:22:52;101808.47;;;11.45;98.52
41654;BME280;68687;52.030;7.110;2024-01-30T11:25:20;101803.06;;;11.37;98.16
41654;BME280;68687;52.030;7.110;2024-01-30T11:27:55;101796.84;;;11.37;99.59
41654;BME280;68687;52.030;7.110;2024-01-30T11:30:31;101806.53;;;11.64;98.34
41654;BME280;68687;52.030;7.110;2024-01-30T11:33:10;101806.03;;;11.60;98.96
41654;BME280;68687;52.030;7.110;2024-01-30T11:38:06;101808.78;;;11.42;100.00
41654;BME280;68687;52.030;7.110;2024-01-30T11:40:33;101805.28;;;11.50;99.42
41654;BME280;68687;52.030;7.110;2024-01-30T11:43:01;101803.72;;;11.39;100.00
41654;BME280;68687;52.030;7.110;2024-01-30T11:45:30;101814.22;;;11.51;100.00
41654;BME280;68687;52.030;7.110;2024-01-30T11:47:56;101803.56;;;11.41;100.00
41654;BME280;68687;52.030;7.110;2024-01-30T11:50:22;101806.88;;;11.61;99.65
41654;BME280;68687;52.030;7.110;2024-01-30T11:52:48;101815.78;;;11.61;99.51
41654;BME280;68687;52.030;7.110;2024-01-30T11:55:14;101814.25;;;11.59;99.66
41654;BME280;68687;52.030;7.110;2024-01-30T11:57:43;101819.50;;;11.34;99.79
41654;BME280;68687;52.030;7.110;2024-01-30T12:00:17;101824.97;;;11.51;99.92
41654;BME280;68687;52.030;7.110;2024-01-30T12:02:44;101824.00;;;11.60;99.56
41654;BME280;68687;52.030;7.110;2024-01-30T12:05:35;101817.94;;;11.58;99.15
41654;BME280;68687;52.030;7.110;2024-01-30T12:08:01;101813.41;;;11.24;100.00
41654;BME280;68687;52.030;7.110;2024-01-30T12:10:27;101824.03;;;11.34;100.00
41654;BME280;68687;52.030;7.110;2024-01-30T12:12:52;101829.88;;;11.55;100.00
41654;BME280;68687;52.030;7.110;2024-01-30T12:15:22;101824.00;;;11.60;99.13
41654;BME280;68687;52.030;7.110;2024-01-30T12:17:48;101824.72;;;11.36;99.24
41654;BME280;68687;52.030;7.110;2024-01-30T12:20:17;101816.94;;;11.25;100.00
41654;BME280;68687;52.030;7.110;2024-01-30T12:22:43;101826.91;;;11.32;100.00
41654;BME280;68687;52.030;7.110;2024-01-30T12:27:48;101826.44;;;11.45;100.00
41654;BME280;68687;52.030;7.110;2024-01-30T12:30:18;101822.72;;;11.38;100.00
41654;BME280;68687;52.030;7.110;2024-01-30T12:32:46;101825.88;;;11.33;100.00
41654;BME280;68687;52.030;7.110;2024-01-30T12:35:18;101830.91;;;11.28;100.00
41654;BME280;68687;52.030;7.110;2024-01-30T12:37:44;101814.09;;;11.26;100.00
41654;BME280;68687;52.030;7.110;2024-01-30T12:40:11;101814.66;;;11.38;100.00
41654;BME280;68687;52.030;7.110;2024-01-30T12:42:38;101816.19;;;11.40;100.00
41654;BME280;68687;52.030;7.110;2024-01-30T12:45:04;101815.38;;;11.48;100.00
41654;BME280;68687;52.030;7.110;2024-01-30T12:47:30;101821.88;;;11.37;100.00
41654;BME280;68687;52.030;7.110;2024-01-30T12:55:47;101799.69;;;11.35;100.00